sensor_id;sensor_type;location;lat;lon;timestamp;P1;durP1;ratioP1;P2;durP2;ratioP2
22256;SDS011;11297;42.686;23.374;2023-03-01T00:01:51;8.27;;;7.47;;
22256;SDS011;11297;42.686;23.374;2023-03-01T00:04:17;4.60;;;4.20;;
22256;SDS011;11297;42.686;23.374;2023-03-01T00:06:42;10.07;;;9.07;;
22256;SDS011;11297;42.686;23.374;2023-03-01T00:09:11;9.17;;;8.37;;
22256;SDS011;11297;42.686;23.374;2023-03-01T00:11:37;17.60;;;15.70;;
22256;SDS011;11297;42.686;23.374;2023-03-01T00:14:03;29.30;;;26.23;;
22256;SDS011;11297;42.686;23.374;2023-03-01T00:16:36;38.93;;;34.87;;
22256;SDS011;11297;42.686;23.374;2023-03-01T00:19:06;27.10;;;24.47;;
22256;SDS011;11297;42.686;23.374;2023-03-01T00:21:34;26.17;;;21.63;;
22256;SDS011;11297;42.686;23.374;2023-03-01T00:24:00;57.20;;;42.60;;
22256;SDS011;11297;42.686;23.374;2023-03-01T00:26:26;80.87;;;46.87;;
22256;SDS011;11297;42.686;23.374;2023-03-01T00:28:52;49.97;;;27.37;;
22256;SDS011;11297;42.686;23.374;2023-03-01T00:31:19;112.00;;;57.43;;
22256;SDS011;11297;42.686;23.374;2023-03-01T00:33:46;40.17;;;18.83;;
22256;SDS011;11297;42.686;23.374;2023-03-01T00:36:13;37.07;;;20.30;;
22256;SDS011;11297;42.686;23.374;2023-03-01T00:38:40;52.20;;;27.87;;
22256;SDS011;11297;42.686;23.374;2023-03-01T00:41:11;25.53;;;14.93;;
22256;SDS011;11297;42.686;23.374;2023-03-01T00:43:41;18.90;;;11.63;;
22256;SDS011;11297;42.686;23.374;2023-03-01T00:46:11;14.67;;;11.20;;
22256;SDS011;11297;42.686;23.374;2023-03-01T00:48:39;13.20;;;8.20;;
22256;SDS011;11297;42.686;23.374;2023-03-01T00:51:05;6.23;;;4.90;;
22256;SDS011;11297;42.686;23.374;2023-03-01T00:53:30;6.97;;;5.43;;
22256;SDS011;11297;42.686;23.374;2023-03-01T00:55:57;5.37;;;4.27;;
22256;SDS011;11297;42.686;23.374;2023-03-01T00:58:23;5.23;;;4.13;;
22256;SDS011;11297;42.686;23.374;2023-03-01T01:00:48;4.03;;;3.57;;
22256;SDS011;11297;42.686;23.374;2023-03-01T01:03:13;3.13;;;2.83;;
22256;SDS011;11297;42.686;23.374;2023-03-01T01:05:39;3.17;;;2.90;;
22256;SDS011;11297;42.686;23.374;2023-03-01T01:08:04;3.07;;;2.77;;
22256;SDS011;11297;42.686;23.374;2023-03-01T01:10:30;3.13;;;2.70;;
22256;SDS011;11297;42.686;23.374;2023-03-01T01:12:58;3.30;;;3.00;;
22256;SDS011;11297;42.686;23.374;2023-03-01T01:15:23;3.10;;;2.90;;
22256;SDS011;11297;42.686;23.374;2023-03-01T01:17:48;3.00;;;2.77;;
22256;SDS011;11297;42.686;23.374;2023-03-01T01:20:14;3.30;;;3.00;;
22256;SDS011;11297;42.686;23.374;2023-03-01T01:22:39;2.80;;;2.60;;
22256;SDS011;11297;42.686;23.374;2023-03-01T01:25:05;3.10;;;2.90;;
22256;SDS011;11297;42.686;23.374;2023-03-01T01:27:30;4.00;;;2.17;;
22256;SDS011;11297;42.686;23.374;2023-03-01T01:29:56;3.40;;;3.10;;
22256;SDS011;11297;42.686;23.374;2023-03-01T01:32:21;2.90;;;2.70;;
22256;SDS011;11297;42.686;23.374;2023-03-01T01:34:47;2.30;;;2.20;;
22256;SDS011;11297;42.686;23.374;2023-03-01T01:37:12;2.60;;;2.40;;
22256;SDS011;11297;42.686;23.374;2023-03-01T01:39:38;2.90;;;2.70;;
22256;SDS011;11297;42.686;23.374;2023-03-01T01:42:03;2.40;;;2.30;;
22256;SDS011;11297;42.686;23.374;2023-03-01T01:44:29;2.33;;;2.23;;
22256;SDS011;11297;42.686;23.374;2023-03-01T01:49:30;3.00;;;2.80;;
22256;SDS011;11297;42.686;23.374;2023-03-01T01:52:00;2.27;;;2.13;;
22256;SDS011;11297;42.686;23.374;2023-03-01T01:57:11;4.73;;;2.80;;
22256;SDS011;11297;42.686;23.374;2023-03-01T01:59:50;2.57;;;2.37;;
22256;SDS011;11297;42.686;23.374;2023-03-01T02:02:19;2.40;;;2.30;;
22256;SDS011;11297;42.686;23.374;2023-03-01T02:04:46;2.10;;;2.00;;
22256;SDS011;11297;42.686;23.374;2023-03-01T02:07:23;2.20;;;2.10;;
22256;SDS011;11297;42.686;23.374;2023-03-01T02:09:50;1.90;;;1.80;;
22256;SDS011;11297;42.686;23.374;2023-03-01T02:12:18;1.97;;;1.63;;
22256;SDS011;11297;42.686;23.374;2023-03-01T02:14:46;1.97;;;1.87;;
22256;SDS011;11297;42.686;23.374;2023-03-01T02:17:12;2.60;;;2.40;;
22256;SDS011;11297;42.686;23.374;2023-03-01T02:19:47;2.20;;;2.10;;
22256;SDS011;11297;42.686;23.374;2023-03-01T02:22:28;2.20;;;2.10;;
22256;SDS011;11297;42.686;23.374;2023-03-01T02:30:23;2.90;;;2.70;;
22256;SDS011;11297;42.686;23.374;2023-03-01T02:32:50;2.90;;;2.70;;
22256;SDS011;11297;42.686;23.374;2023-03-01T02:35:19;3.07;;;2.87;;
22256;SDS011;11297;42.686;23.374;2023-03-01T02:37:45;2.67;;;2.47;;
22256;SDS011;11297;42.686;23.374;2023-03-01T02:40:16;2.27;;;2.17;;
22256;SDS011;11297;42.686;23.374;2023-03-01T02:42:54;2.23;;;1.83;;
22256;SDS011;11297;42.686;23.374;2023-03-01T02:45:22;2.13;;;2.03;;
22256;SDS011;11297;42.686;23.374;2023-03-01T02:47:48;2.40;;;2.00;;
22256;SDS011;11297;42.686;23.374;2023-03-01T02:50:17;2.83;;;2.57;;
22256;SDS011;11297;42.686;23.374;2023-03-01T02:55:27;3.57;;;2.83;;
22256;SDS011;11297;42.686;23.374;2023-03-01T02:57:53;2.63;;;2.43;;
22256;SDS011;11297;42.686;23.374;2023-03-01T03:00:26;2.80;;;2.50;;
22256;SDS011;11297;42.686;23.374;2023-03-01T03:02:58;2.70;;;2.50;;
22256;SDS011;11297;42.686;23.374;2023-03-01T03:05:27;2.37;;;2.17;;
22256;SDS011;11297;42.686;23.374;2023-03-01T03:07:54;2.17;;;2.07;;
22256;SDS011;11297;42.686;23.374;2023-03-01T03:10:22;2.90;;;2.70;;
22256;SDS011;11297;42.686;23.374;2023-03-01T03:12:56;2.83;;;2.63;;
22256;SDS011;11297;42.686;23.374;2023-03-01T03:15:24;2.53;;;2.43;;
22256;SDS011;11297;42.686;23.374;2023-03-01T03:17:50;3.23;;;2.93;;
22256;SDS011;11297;42.686;23.374;2023-03-01T03:20:18;2.80;;;2.60;;
22256;SDS011;11297;42.686;23.374;2023-03-01T03:22:49;2.70;;;2.50;;
22256;SDS011;11297;42.686;23.374;2023-03-01T03:25:16;2.40;;;2.30;;
22256;SDS011;11297;42.686;23.374;2023-03-01T03:27:42;2.70;;;2.50;;
22256;SDS011;11297;42.686;23.374;2023-03-01T03:30:10;3.00;;;2.80;;
22256;SDS011;11297;42.686;23.374;2023-03-01T03:32:39;2.60;;;2.40;;
22256;SDS011;11297;42.686;23.374;2023-03-01T03:35:05;2.87;;;2.67;;
22256;SDS011;11297;42.686;23.374;2023-03-01T03:37:37;2.90;;;2.70;;
22256;SDS011;11297;42.686;23.374;2023-03-01T03:40:25;3.20;;;2.30;;
22256;SDS011;11297;42.686;23.374;2023-03-01T03:42:52;4.07;;;3.77;;
22256;SDS011;11297;42.686;23.374;2023-03-01T03:45:18;3.60;;;2.97;;
22256;SDS011;11297;42.686;23.374;2023-03-01T03:47:43;4.07;;;3.60;;
22256;SDS011;11297;42.686;23.374;2023-03-01T03:50:10;3.83;;;3.53;;
22256;SDS011;11297;42.686;23.374;2023-03-01T03:52:37;9.70;;;8.83;;
22256;SDS011;11297;42.686;23.374;2023-03-01T03:55:03;6.20;;;5.70;;
22256;SDS011;11297;42.686;23.374;2023-03-01T04:00:22;5.37;;;4.97;;
22256;SDS011;11297;42.686;23.374;2023-03-01T04:02:49;4.10;;;3.70;;
22256;SDS011;11297;42.686;23.374;2023-03-01T04:05:15;3.50;;;3.20;;
22256;SDS011;11297;42.686;23.374;2023-03-01T04:07:42;3.03;;;2.83;;
22256;SDS011;11297;42.686;23.374;2023-03-01T04:10:13;4.30;;;3.90;;
22256;SDS011;11297;42.686;23.374;2023-03-01T04:12:40;3.10;;;2.90;;
22256;SDS011;11297;42.686;23.374;2023-03-01T04:15:08;3.50;;;3.30;;
22256;SDS011;11297;42.686;23.374;2023-03-01T04:17:42;4.77;;;4.37;;
22256;SDS011;11297;42.686;23.374;2023-03-01T04:20:10;4.00;;;3.60;;
22256;SDS011;11297;42.686;23.374;2023-03-01T04:22:37;5.53;;;3.70;;
22256;SDS011;11297;42.686;23.374;2023-03-01T04:25:04;4.03;;;3.73;;
22256;SDS011;11297;42.686;23.374;2023-03-01T04:27:32;3.60;;;3.30;;
22256;SDS011;11297;42.686;23.374;2023-03-01T04:29:58;4.17;;;3.43;;
22256;SDS011;11297;42.686;23.374;2023-03-01T04:32:24;3.43;;;3.13;;
22256;SDS011;11297;42.686;23.374;2023-03-01T04:34:49;3.87;;;3.57;;
22256;SDS011;11297;42.686;23.374;2023-03-01T04:37:14;3.50;;;3.20;;
22256;SDS011;11297;42.686;23.374;2023-03-01T04:39:40;3.47;;;3.17;;
22256;SDS011;11297;42.686;23.374;2023-03-01T04:42:10;3.37;;;3.07;;
22256;SDS011;11297;42.686;23.374;2023-03-01T04:44:36;2.97;;;2.77;;
22256;SDS011;11297;42.686;23.374;2023-03-01T04:47:02;4.10;;;3.53;;
22256;SDS011;11297;42.686;23.374;2023-03-01T04:49:27;4.80;;;4.30;;
22256;SDS011;11297;42.686;23.374;2023-03-01T04:51:53;4.70;;;4.30;;
22256;SDS011;11297;42.686;23.374;2023-03-01T04:54:18;5.10;;;4.43;;
22256;SDS011;11297;42.686;23.374;2023-03-01T04:56:43;5.20;;;4.80;;
22256;SDS011;11297;42.686;23.374;2023-03-01T04:59:09;4.73;;;4.33;;
22256;SDS011;11297;42.686;23.374;2023-03-01T05:01:35;6.50;;;5.13;;
22256;SDS011;11297;42.686;23.374;2023-03-01T05:04:00;4.60;;;4.20;;
22256;SDS011;11297;42.686;23.374;2023-03-01T05:06:28;4.43;;;3.87;;
22256;SDS011;11297;42.686;23.374;2023-03-01T05:08:53;7.33;;;5.57;;
22256;SDS011;11297;42.686;23.374;2023-03-01T05:11:18;4.90;;;4.30;;
22256;SDS011;11297;42.686;23.374;2023-03-01T05:13:44;4.17;;;3.80;;
22256;SDS011;11297;42.686;23.374;2023-03-01T05:16:09;4.73;;;4.33;;
22256;SDS011;11297;42.686;23.374;2023-03-01T05:18:39;4.23;;;3.83;;
22256;SDS011;11297;42.686;23.374;2023-03-01T05:21:06;3.37;;;3.10;;
22256;SDS011;11297;42.686;23.374;2023-03-01T05:23:33;4.50;;;4.10;;
22256;SDS011;11297;42.686;23.374;2023-03-01T05:25:59;4.90;;;4.17;;
22256;SDS011;11297;42.686;23.374;2023-03-01T05:28:26;4.10;;;3.70;;
22256;SDS011;11297;42.686;23.374;2023-03-01T05:30:53;3.90;;;3.60;;
22256;SDS011;11297;42.686;23.374;2023-03-01T05:33:19;4.63;;;4.23;;
22256;SDS011;11297;42.686;23.374;2023-03-01T05:35:47;4.13;;;3.73;;
22256;SDS011;11297;42.686;23.374;2023-03-01T05:38:13;4.33;;;4.00;;
22256;SDS011;11297;42.686;23.374;2023-03-01T05:40:40;4.97;;;4.10;;
22256;SDS011;11297;42.686;23.374;2023-03-01T05:43:06;3.90;;;3.53;;
22256;SDS011;11297;42.686;23.374;2023-03-01T05:45:32;4.07;;;3.67;;
22256;SDS011;11297;42.686;23.374;2023-03-01T05:47:58;6.43;;;4.63;;
22256;SDS011;11297;42.686;23.374;2023-03-01T05:50:25;4.17;;;3.77;;
22256;SDS011;11297;42.686;23.374;2023-03-01T05:52:52;3.30;;;3.00;;
22256;SDS011;11297;42.686;23.374;2023-03-01T05:55:25;4.13;;;3.80;;
22256;SDS011;11297;42.686;23.374;2023-03-01T05:57:52;4.73;;;4.23;;
22256;SDS011;11297;42.686;23.374;2023-03-01T06:00:18;5.00;;;4.10;;
22256;SDS011;11297;42.686;23.374;2023-03-01T06:02:47;3.63;;;3.33;;
22256;SDS011;11297;42.686;23.374;2023-03-01T06:05:14;3.40;;;3.10;;
22256;SDS011;11297;42.686;23.374;2023-03-01T06:07:40;4.33;;;3.90;;
22256;SDS011;11297;42.686;23.374;2023-03-01T06:10:06;4.93;;;3.93;;
22256;SDS011;11297;42.686;23.374;2023-03-01T06:12:34;4.33;;;3.47;;
22256;SDS011;11297;42.686;23.374;2023-03-01T06:15:00;4.93;;;4.43;;
22256;SDS011;11297;42.686;23.374;2023-03-01T06:17:29;3.30;;;3.00;;
22256;SDS011;11297;42.686;23.374;2023-03-01T06:19:55;4.47;;;3.53;;
22256;SDS011;11297;42.686;23.374;2023-03-01T06:22:20;3.37;;;2.93;;
22256;SDS011;11297;42.686;23.374;2023-03-01T06:24:46;3.37;;;3.07;;
22256;SDS011;11297;42.686;23.374;2023-03-01T06:27:11;3.20;;;2.87;;
22256;SDS011;11297;42.686;23.374;2023-03-01T06:29:36;3.00;;;2.80;;
22256;SDS011;11297;42.686;23.374;2023-03-01T06:32:02;3.33;;;3.03;;
22256;SDS011;11297;42.686;23.374;2023-03-01T06:34:28;3.90;;;3.10;;
22256;SDS011;11297;42.686;23.374;2023-03-01T06:36:53;3.70;;;3.40;;
22256;SDS011;11297;42.686;23.374;2023-03-01T06:39:19;4.97;;;3.47;;
22256;SDS011;11297;42.686;23.374;2023-03-01T06:41:44;4.23;;;3.37;;
22256;SDS011;11297;42.686;23.374;2023-03-01T06:44:10;5.10;;;3.00;;
22256;SDS011;11297;42.686;23.374;2023-03-01T06:46:35;3.57;;;2.83;;
22256;SDS011;11297;42.686;23.374;2023-03-01T06:49:01;2.83;;;2.63;;
22256;SDS011;11297;42.686;23.374;2023-03-01T06:51:29;3.37;;;3.07;;
22256;SDS011;11297;42.686;23.374;2023-03-01T06:53:55;3.40;;;2.97;;
22256;SDS011;11297;42.686;23.374;2023-03-01T06:56:20;4.27;;;2.97;;
22256;SDS011;11297;42.686;23.374;2023-03-01T06:58:46;3.33;;;3.07;;
22256;SDS011;11297;42.686;23.374;2023-03-01T07:01:11;3.03;;;2.77;;
22256;SDS011;11297;42.686;23.374;2023-03-01T07:03:36;3.10;;;2.90;;
22256;SDS011;11297;42.686;23.374;2023-03-01T07:06:02;3.50;;;3.20;;
22256;SDS011;11297;42.686;23.374;2023-03-01T07:08:27;3.73;;;3.27;;
22256;SDS011;11297;42.686;23.374;2023-03-01T07:10:56;2.77;;;2.57;;
22256;SDS011;11297;42.686;23.374;2023-03-01T07:13:22;3.93;;;3.30;;
22256;SDS011;11297;42.686;23.374;2023-03-01T07:15:47;3.40;;;3.10;;
22256;SDS011;11297;42.686;23.374;2023-03-01T07:18:13;5.63;;;3.77;;
22256;SDS011;11297;42.686;23.374;2023-03-01T07:20:38;3.07;;;2.87;;
22256;SDS011;11297;42.686;23.374;2023-03-01T07:23:05;3.83;;;2.77;;
22256;SDS011;11297;42.686;23.374;2023-03-01T07:25:31;6.40;;;2.80;;
22256;SDS011;11297;42.686;23.374;2023-03-01T07:27:57;4.23;;;2.90;;
22256;SDS011;11297;42.686;23.374;2023-03-01T07:30:22;3.33;;;2.97;;
22256;SDS011;11297;42.686;23.374;2023-03-01T07:32:50;2.87;;;2.63;;
22256;SDS011;11297;42.686;23.374;2023-03-01T07:35:16;2.70;;;2.50;;
22256;SDS011;11297;42.686;23.374;2023-03-01T07:37:41;2.87;;;2.63;;
22256;SDS011;11297;42.686;23.374;2023-03-01T07:40:07;5.33;;;2.60;;
22256;SDS011;11297;42.686;23.374;2023-03-01T07:42:33;2.70;;;2.50;;
22256;SDS011;11297;42.686;23.374;2023-03-01T07:44:58;2.63;;;2.43;;
22256;SDS011;11297;42.686;23.374;2023-03-01T07:47:23;3.93;;;2.20;;
22256;SDS011;11297;42.686;23.374;2023-03-01T07:49:49;5.20;;;2.40;;
22256;SDS011;11297;42.686;23.374;2023-03-01T07:52:16;3.93;;;2.70;;
22256;SDS011;11297;42.686;23.374;2023-03-01T07:54:42;4.83;;;3.77;;
22256;SDS011;11297;42.686;23.374;2023-03-01T07:57:09;5.57;;;3.60;;
22256;SDS011;11297;42.686;23.374;2023-03-01T07:59:34;3.30;;;2.60;;
22256;SDS011;11297;42.686;23.374;2023-03-01T08:01:59;6.13;;;3.13;;
22256;SDS011;11297;42.686;23.374;2023-03-01T08:04:25;6.17;;;5.57;;
22256;SDS011;11297;42.686;23.374;2023-03-01T08:06:51;3.00;;;2.70;;
22256;SDS011;11297;42.686;23.374;2023-03-01T08:09:17;2.67;;;2.37;;
22256;SDS011;11297;42.686;23.374;2023-03-01T08:11:42;2.10;;;2.00;;
22256;SDS011;11297;42.686;23.374;2023-03-01T08:14:08;4.07;;;2.33;;
22256;SDS011;11297;42.686;23.374;2023-03-01T08:16:35;5.00;;;2.57;;
22256;SDS011;11297;42.686;23.374;2023-03-01T08:19:08;5.57;;;2.90;;
22256;SDS011;11297;42.686;23.374;2023-03-01T08:21:34;3.13;;;2.80;;
22256;SDS011;11297;42.686;23.374;2023-03-01T08:24:01;5.23;;;2.47;;
22256;SDS011;11297;42.686;23.374;2023-03-01T08:26:27;2.30;;;2.10;;
22256;SDS011;11297;42.686;23.374;2023-03-01T08:28:53;3.43;;;2.23;;
22256;SDS011;11297;42.686;23.374;2023-03-01T08:33:47;3.60;;;2.63;;
22256;SDS011;11297;42.686;23.374;2023-03-01T08:36:20;5.27;;;3.23;;
22256;SDS011;11297;42.686;23.374;2023-03-01T08:38:46;2.40;;;2.30;;
22256;SDS011;11297;42.686;23.374;2023-03-01T08:41:12;3.83;;;2.70;;
22256;SDS011;11297;42.686;23.374;2023-03-01T08:43:38;2.60;;;2.40;;
22256;SDS011;11297;42.686;23.374;2023-03-01T08:46:03;2.50;;;2.30;;
22256;SDS011;11297;42.686;23.374;2023-03-01T08:48:29;2.70;;;2.43;;
22256;SDS011;11297;42.686;23.374;2023-03-01T08:50:54;2.67;;;2.50;;
22256;SDS011;11297;42.686;23.374;2023-03-01T08:53:20;3.30;;;3.10;;
22256;SDS011;11297;42.686;23.374;2023-03-01T08:55:45;3.13;;;2.43;;
22256;SDS011;11297;42.686;23.374;2023-03-01T08:58:11;2.20;;;2.10;;
22256;SDS011;11297;42.686;23.374;2023-03-01T09:00:36;2.20;;;2.10;;
22256;SDS011;11297;42.686;23.374;2023-03-01T09:03:02;2.63;;;2.13;;
22256;SDS011;11297;42.686;23.374;2023-03-01T09:05:27;2.40;;;2.20;;
22256;SDS011;11297;42.686;23.374;2023-03-01T09:07:52;2.10;;;2.00;;
22256;SDS011;11297;42.686;23.374;2023-03-01T09:10:18;2.80;;;2.10;;
22256;SDS011;11297;42.686;23.374;2023-03-01T09:12:43;2.33;;;2.17;;
22256;SDS011;11297;42.686;23.374;2023-03-01T09:15:09;2.70;;;2.30;;
22256;SDS011;11297;42.686;23.374;2023-03-01T09:17:35;2.00;;;1.90;;
22256;SDS011;11297;42.686;23.374;2023-03-01T09:20:01;2.37;;;2.17;;
22256;SDS011;11297;42.686;23.374;2023-03-01T09:22:26;3.03;;;2.40;;
22256;SDS011;11297;42.686;23.374;2023-03-01T09:24:52;2.93;;;2.23;;
22256;SDS011;11297;42.686;23.374;2023-03-01T09:27:17;2.60;;;2.40;;
22256;SDS011;11297;42.686;23.374;2023-03-01T09:29:44;2.20;;;2.10;;
22256;SDS011;11297;42.686;23.374;2023-03-01T09:32:10;2.53;;;2.03;;
22256;SDS011;11297;42.686;23.374;2023-03-01T09:34:35;2.07;;;1.97;;
22256;SDS011;11297;42.686;23.374;2023-03-01T09:37:21;2.60;;;2.40;;
22256;SDS011;11297;42.686;23.374;2023-03-01T09:39:46;2.80;;;2.50;;
22256;SDS011;11297;42.686;23.374;2023-03-01T09:42:12;3.00;;;2.70;;
22256;SDS011;11297;42.686;23.374;2023-03-01T09:44:40;4.23;;;2.70;;
22256;SDS011;11297;42.686;23.374;2023-03-01T09:47:41;2.00;;;1.90;;
22256;SDS011;11297;42.686;23.374;2023-03-01T09:50:10;2.00;;;1.77;;
22256;SDS011;11297;42.686;23.374;2023-03-01T09:52:42;1.70;;;1.60;;
22256;SDS011;11297;42.686;23.374;2023-03-01T09:55:12;2.07;;;1.60;;
22256;SDS011;11297;42.686;23.374;2023-03-01T10:03:12;1.80;;;1.70;;
22256;SDS011;11297;42.686;23.374;2023-03-01T10:11:31;1.90;;;1.80;;
22256;SDS011;11297;42.686;23.374;2023-03-01T10:14:28;1.60;;;1.50;;
22256;SDS011;11297;42.686;23.374;2023-03-01T10:16:55;1.90;;;1.80;;
22256;SDS011;11297;42.686;23.374;2023-03-01T10:21:55;4.13;;;1.80;;
22256;SDS011;11297;42.686;23.374;2023-03-01T10:24:27;1.90;;;1.60;;
22256;SDS011;11297;42.686;23.374;2023-03-01T10:27:01;3.10;;;2.80;;
22256;SDS011;11297;42.686;23.374;2023-03-01T10:32:31;2.47;;;2.27;;
22256;SDS011;11297;42.686;23.374;2023-03-01T10:34:57;2.27;;;2.07;;
22256;SDS011;11297;42.686;23.374;2023-03-01T10:37:23;2.60;;;2.13;;
22256;SDS011;11297;42.686;23.374;2023-03-01T10:40:09;3.00;;;2.23;;
22256;SDS011;11297;42.686;23.374;2023-03-01T10:42:36;1.90;;;1.80;;
22256;SDS011;11297;42.686;23.374;2023-03-01T10:45:33;1.50;;;1.40;;
22256;SDS011;11297;42.686;23.374;2023-03-01T10:48:04;12.33;;;5.87;;
22256;SDS011;11297;42.686;23.374;2023-03-01T10:50:30;8.07;;;4.43;;
22256;SDS011;11297;42.686;23.374;2023-03-01T10:53:00;1.10;;;1.10;;
22256;SDS011;11297;42.686;23.374;2023-03-01T10:55:45;1.50;;;1.30;;
22256;SDS011;11297;42.686;23.374;2023-03-01T11:05:58;1.43;;;1.33;;
22256;SDS011;11297;42.686;23.374;2023-03-01T11:08:30;1.50;;;1.40;;
22256;SDS011;11297;42.686;23.374;2023-03-01T11:11:03;1.60;;;1.37;;
22256;SDS011;11297;42.686;23.374;2023-03-01T11:13:34;1.70;;;1.60;;
22256;SDS011;11297;42.686;23.374;2023-03-01T11:16:02;1.43;;;1.33;;
22256;SDS011;11297;42.686;23.374;2023-03-01T11:18:32;1.70;;;1.60;;
22256;SDS011;11297;42.686;23.374;2023-03-01T11:20:58;1.47;;;1.37;;
22256;SDS011;11297;42.686;23.374;2023-03-01T11:23:27;3.23;;;1.13;;
22256;SDS011;11297;42.686;23.374;2023-03-01T11:25:55;1.47;;;1.37;;
22256;SDS011;11297;42.686;23.374;2023-03-01T11:28:23;1.17;;;1.10;;
22256;SDS011;11297;42.686;23.374;2023-03-01T11:30:56;1.50;;;1.40;;
22256;SDS011;11297;42.686;23.374;2023-03-01T11:33:42;1.43;;;1.30;;
22256;SDS011;11297;42.686;23.374;2023-03-01T11:42:11;1.80;;;1.70;;
22256;SDS011;11297;42.686;23.374;2023-03-01T11:44:40;2.40;;;2.30;;
22256;SDS011;11297;42.686;23.374;2023-03-01T11:52:56;1.80;;;1.70;;
22256;SDS011;11297;42.686;23.374;2023-03-01T12:08:37;6.67;;;4.47;;
22256;SDS011;11297;42.686;23.374;2023-03-01T12:33:00;3.43;;;2.87;;
22256;SDS011;11297;42.686;23.374;2023-03-01T12:49:13;4.30;;;2.90;;
22256;SDS011;11297;42.686;23.374;2023-03-01T12:51:50;4.20;;;3.17;;
22256;SDS011;11297;42.686;23.374;2023-03-01T12:54:26;6.07;;;3.60;;
22256;SDS011;11297;42.686;23.374;2023-03-01T12:56:53;6.60;;;5.30;;
22256;SDS011;11297;42.686;23.374;2023-03-01T13:17:52;2.43;;;2.23;;
22256;SDS011;11297;42.686;23.374;2023-03-01T13:20:23;4.83;;;3.10;;
22256;SDS011;11297;42.686;23.374;2023-03-01T13:23:38;3.90;;;2.90;;
22256;SDS011;11297;42.686;23.374;2023-03-01T13:30:57;4.40;;;3.10;;
22256;SDS011;11297;42.686;23.374;2023-03-01T13:35:48;2.83;;;2.53;;
22256;SDS011;11297;42.686;23.374;2023-03-01T13:41:02;3.47;;;2.70;;
22256;SDS011;11297;42.686;23.374;2023-03-01T13:43:30;2.77;;;2.50;;
22256;SDS011;11297;42.686;23.374;2023-03-01T13:45:58;3.30;;;2.60;;
22256;SDS011;11297;42.686;23.374;2023-03-01T13:48:26;3.87;;;2.47;;
22256;SDS011;11297;42.686;23.374;2023-03-01T13:51:01;3.93;;;2.77;;
22256;SDS011;11297;42.686;23.374;2023-03-01T13:53:31;4.03;;;2.57;;
22256;SDS011;11297;42.686;23.374;2023-03-01T13:56:00;3.00;;;2.70;;
22256;SDS011;11297;42.686;23.374;2023-03-01T13:58:32;4.87;;;2.80;;
22256;SDS011;11297;42.686;23.374;2023-03-01T14:01:30;3.20;;;2.77;;
22256;SDS011;11297;42.686;23.374;2023-03-01T14:03:57;3.47;;;2.57;;
22256;SDS011;11297;42.686;23.374;2023-03-01T14:06:29;3.20;;;2.97;;
22256;SDS011;11297;42.686;23.374;2023-03-01T14:20:12;3.07;;;2.77;;
22256;SDS011;11297;42.686;23.374;2023-03-01T14:22:43;3.07;;;2.63;;
22256;SDS011;11297;42.686;23.374;2023-03-01T14:27:50;3.10;;;2.90;;
22256;SDS011;11297;42.686;23.374;2023-03-01T14:30:21;3.00;;;2.63;;
22256;SDS011;11297;42.686;23.374;2023-03-01T14:32:55;2.97;;;2.67;;
22256;SDS011;11297;42.686;23.374;2023-03-01T14:35:26;3.90;;;2.87;;
22256;SDS011;11297;42.686;23.374;2023-03-01T14:37:54;4.67;;;2.27;;
22256;SDS011;11297;42.686;23.374;2023-03-01T14:40:24;4.53;;;3.67;;
22256;SDS011;11297;42.686;23.374;2023-03-01T14:43:11;3.47;;;2.70;;
22256;SDS011;11297;42.686;23.374;2023-03-01T14:45:42;4.40;;;2.97;;
22256;SDS011;11297;42.686;23.374;2023-03-01T14:48:13;2.83;;;2.57;;
22256;SDS011;11297;42.686;23.374;2023-03-01T14:50:40;5.30;;;2.67;;
22256;SDS011;11297;42.686;23.374;2023-03-01T14:53:07;2.13;;;1.93;;
22256;SDS011;11297;42.686;23.374;2023-03-01T14:55:42;3.63;;;3.17;;
22256;SDS011;11297;42.686;23.374;2023-03-01T14:58:12;3.83;;;2.90;;
22256;SDS011;11297;42.686;23.374;2023-03-01T15:00:39;2.97;;;2.67;;
22256;SDS011;11297;42.686;23.374;2023-03-01T15:03:23;3.50;;;3.00;;
22256;SDS011;11297;42.686;23.374;2023-03-01T15:05:51;106.67;;;38.80;;
22256;SDS011;11297;42.686;23.374;2023-03-01T15:08:19;100.80;;;40.23;;
22256;SDS011;11297;42.686;23.374;2023-03-01T15:13:42;2.50;;;2.27;;
22256;SDS011;11297;42.686;23.374;2023-03-01T15:16:12;3.17;;;2.50;;
22256;SDS011;11297;42.686;23.374;2023-03-01T15:18:44;3.37;;;2.50;;
22256;SDS011;11297;42.686;23.374;2023-03-01T15:21:18;2.90;;;2.70;;
22256;SDS011;11297;42.686;23.374;2023-03-01T15:23:52;3.20;;;2.83;;
22256;SDS011;11297;42.686;23.374;2023-03-01T15:26:24;4.83;;;2.87;;
22256;SDS011;11297;42.686;23.374;2023-03-01T15:28:56;3.23;;;2.90;;
22256;SDS011;11297;42.686;23.374;2023-03-01T15:31:33;3.73;;;2.60;;
22256;SDS011;11297;42.686;23.374;2023-03-01T15:36:53;5.17;;;2.90;;
22256;SDS011;11297;42.686;23.374;2023-03-01T15:39:31;3.93;;;3.50;;
22256;SDS011;11297;42.686;23.374;2023-03-01T15:42:02;7.00;;;5.23;;
22256;SDS011;11297;42.686;23.374;2023-03-01T15:44:41;10.37;;;7.90;;
22256;SDS011;11297;42.686;23.374;2023-03-01T15:49:53;9.33;;;4.83;;
22256;SDS011;11297;42.686;23.374;2023-03-01T15:52:35;5.20;;;4.23;;
22256;SDS011;11297;42.686;23.374;2023-03-01T15:55:06;6.27;;;4.87;;
22256;SDS011;11297;42.686;23.374;2023-03-01T15:57:40;6.63;;;5.10;;
22256;SDS011;11297;42.686;23.374;2023-03-01T16:00:08;8.90;;;5.87;;
22256;SDS011;11297;42.686;23.374;2023-03-01T16:02:38;5.57;;;4.37;;
22256;SDS011;11297;42.686;23.374;2023-03-01T16:05:12;5.50;;;3.53;;
22256;SDS011;11297;42.686;23.374;2023-03-01T16:07:43;7.00;;;4.60;;
22256;SDS011;11297;42.686;23.374;2023-03-01T16:10:08;4.30;;;3.27;;
22256;SDS011;11297;42.686;23.374;2023-03-01T16:12:34;3.77;;;3.37;;
22256;SDS011;11297;42.686;23.374;2023-03-01T16:15:00;5.07;;;3.50;;
22256;SDS011;11297;42.686;23.374;2023-03-01T16:17:25;4.33;;;3.93;;
22256;SDS011;11297;42.686;23.374;2023-03-01T16:19:50;3.93;;;3.40;;
22256;SDS011;11297;42.686;23.374;2023-03-01T16:22:16;3.67;;;2.83;;
22256;SDS011;11297;42.686;23.374;2023-03-01T16:24:41;4.60;;;3.43;;
22256;SDS011;11297;42.686;23.374;2023-03-01T16:27:07;4.97;;;3.50;;
22256;SDS011;11297;42.686;23.374;2023-03-01T16:29:32;4.67;;;3.37;;
22256;SDS011;11297;42.686;23.374;2023-03-01T16:32:01;5.67;;;3.50;;
22256;SDS011;11297;42.686;23.374;2023-03-01T16:34:27;5.60;;;3.67;;
22256;SDS011;11297;42.686;23.374;2023-03-01T16:36:52;7.47;;;3.53;;
22256;SDS011;11297;42.686;23.374;2023-03-01T16:39:18;4.80;;;2.90;;
22256;SDS011;11297;42.686;23.374;2023-03-01T16:41:43;4.13;;;3.40;;
22256;SDS011;11297;42.686;23.374;2023-03-01T16:44:08;4.50;;;3.10;;
22256;SDS011;11297;42.686;23.374;2023-03-01T16:46:34;5.60;;;3.80;;
22256;SDS011;11297;42.686;23.374;2023-03-01T16:48:59;3.97;;;3.57;;
22256;SDS011;11297;42.686;23.374;2023-03-01T16:51:25;5.47;;;4.83;;
22256;SDS011;11297;42.686;23.374;2023-03-01T16:53:50;4.50;;;4.07;;
22256;SDS011;11297;42.686;23.374;2023-03-01T16:56:16;6.50;;;5.37;;
22256;SDS011;11297;42.686;23.374;2023-03-01T16:58:43;5.27;;;4.67;;
22256;SDS011;11297;42.686;23.374;2023-03-01T17:01:16;5.27;;;4.60;;
22256;SDS011;11297;42.686;23.374;2023-03-01T17:03:44;6.07;;;5.30;;
22256;SDS011;11297;42.686;23.374;2023-03-01T17:06:12;6.87;;;4.93;;
22256;SDS011;11297;42.686;23.374;2023-03-01T17:08:40;5.80;;;4.90;;
22256;SDS011;11297;42.686;23.374;2023-03-01T17:11:10;6.63;;;4.83;;
22256;SDS011;11297;42.686;23.374;2023-03-01T17:13:40;9.37;;;5.97;;
22256;SDS011;11297;42.686;23.374;2023-03-01T17:16:06;6.23;;;5.53;;